createdAt,value
2018-05-15T00:02:07.740Z,7.00
2018-05-15T00:04:37.106Z,7.17
2018-05-15T00:07:06.638Z,7.53
2018-05-15T00:09:36.181Z,6.83
2018-05-15T00:12:05.397Z,6.50
2018-05-15T00:14:34.972Z,6.30
2018-05-15T00:17:05.499Z,7.70
2018-05-15T00:19:35.034Z,6.17
2018-05-15T00:22:04.523Z,8.23
2018-05-15T00:24:34.753Z,6.80
2018-05-15T00:27:04.070Z,6.93
2018-05-15T00:29:35.845Z,7.20
2018-05-15T00:32:05.989Z,6.80
2018-05-15T00:34:35.479Z,7.00
2018-05-15T00:37:04.969Z,7.10
2018-05-15T00:39:34.449Z,7.40
2018-05-15T00:42:03.958Z,7.63
2018-05-15T00:44:35.444Z,6.43
2018-05-15T00:47:05.061Z,6.80
2018-05-15T00:49:34.513Z,6.73
2018-05-15T00:52:04.041Z,6.93
2018-05-15T00:54:33.268Z,6.47
2018-05-15T00:57:02.485Z,6.67
2018-05-15T00:59:31.739Z,6.63
2018-05-15T01:02:01.279Z,6.83
2018-05-15T01:04:30.777Z,7.00
2018-05-15T01:07:00.314Z,7.30
2018-05-15T01:09:29.861Z,6.93
2018-05-15T01:11:59.408Z,7.10
2018-05-15T01:14:29.196Z,7.57
2018-05-15T01:16:58.832Z,6.83
2018-05-15T01:19:28.662Z,6.73
2018-05-15T01:21:59.040Z,7.03
2018-05-15T01:24:28.805Z,7.10
2018-05-15T01:26:58.007Z,6.60
2018-05-15T01:29:27.519Z,7.43
2018-05-15T01:31:57.027Z,8.13
2018-05-15T01:34:26.508Z,7.47
2018-05-15T01:36:56.013Z,7.07
2018-05-15T01:39:25.396Z,7.03
2018-05-15T01:41:54.594Z,7.07
2018-05-15T01:44:24.135Z,6.90
2018-05-15T01:46:53.771Z,7.40
2018-05-15T01:49:23.064Z,7.27
2018-05-15T01:51:52.555Z,7.13
2018-05-15T01:54:23.609Z,7.70
2018-05-15T01:56:52.991Z,7.77
2018-05-15T01:59:23.159Z,7.90
2018-05-15T02:01:52.364Z,7.90
2018-05-15T02:04:21.784Z,8.17
2018-05-15T02:06:51.262Z,8.10
2018-05-15T02:09:20.732Z,7.87
2018-05-15T02:11:50.397Z,9.03
2018-05-15T02:14:20.724Z,9.37
2018-05-15T02:16:50.203Z,11.80
2018-05-15T02:19:19.627Z,10.60
2018-05-15T02:21:49.161Z,13.87
2018-05-15T02:24:18.764Z,12.73
2018-05-15T02:26:48.247Z,12.60
2018-05-15T02:29:17.783Z,11.43
2018-05-15T02:31:47.293Z,10.27
2018-05-15T02:34:16.770Z,10.20
2018-05-15T02:36:46.307Z,9.40
2018-05-15T02:39:16.263Z,9.83
2018-05-15T02:41:46.423Z,8.67
2018-05-15T02:44:15.880Z,8.33
2018-05-15T02:46:46.062Z,8.70
2018-05-15T02:49:15.570Z,8.13
2018-05-15T02:51:45.113Z,8.40
2018-05-15T02:54:14.705Z,9.47
2018-05-15T02:56:44.199Z,8.50
2018-05-15T02:59:13.628Z,8.07
2018-05-15T03:01:43.240Z,8.13
2018-05-15T03:04:12.748Z,9.10
2018-05-15T03:06:42.359Z,8.70
2018-05-15T03:09:11.869Z,8.27
2018-05-15T03:11:42.144Z,8.93
2018-05-15T03:14:12.496Z,8.63
2018-05-15T03:16:42.008Z,8.00
2018-05-15T03:19:11.784Z,8.80
2018-05-15T03:21:41.259Z,9.07
2018-05-15T03:24:10.462Z,9.77
2018-05-15T03:26:39.941Z,9.63
2018-05-15T03:29:09.555Z,8.87
2018-05-15T03:31:39.063Z,9.13
2018-05-15T03:34:08.535Z,9.40
2018-05-15T03:36:38.106Z,9.10
2018-05-15T03:39:07.597Z,9.80
2018-05-15T03:41:37.250Z,8.70
2018-05-15T03:44:06.919Z,10.70
2018-05-15T03:46:36.420Z,9.63
2018-05-15T03:49:05.987Z,8.87
2018-05-15T03:51:35.779Z,9.50
2018-05-15T03:54:05.215Z,10.37
2018-05-15T03:56:34.794Z,11.43
2018-05-15T03:59:04.297Z,11.23
2018-05-15T04:01:39.463Z,10.80
2018-05-15T04:04:14.859Z,10.97
2018-05-15T04:06:50.329Z,10.03
2018-05-15T04:09:19.839Z,11.93
2018-05-15T04:11:49.448Z,11.63
2018-05-15T04:14:18.958Z,11.63
2018-05-15T04:16:49.398Z,14.00
2018-05-15T04:19:18.603Z,13.00
2018-05-15T04:21:48.071Z,11.70
2018-05-15T04:24:17.579Z,11.07
2018-05-15T04:26:47.200Z,11.27
2018-05-15T04:29:16.707Z,10.80
2018-05-15T04:31:46.215Z,10.67
2018-05-15T04:34:15.728Z,11.30
2018-05-15T04:36:45.051Z,11.00
2018-05-15T04:39:15.119Z,12.03
2018-05-15T04:41:44.701Z,12.57
2018-05-15T04:44:14.272Z,13.60
2018-05-15T04:46:44.291Z,11.57
2018-05-15T04:49:13.820Z,11.13
2018-05-15T04:51:42.975Z,10.67
2018-05-15T04:56:41.331Z,9.67
2018-05-15T04:59:10.787Z,10.10
2018-05-15T05:01:40.223Z,8.23
2018-05-15T05:04:09.730Z,8.27
2018-05-15T05:06:39.251Z,8.53
2018-05-15T05:09:08.748Z,8.47
2018-05-15T05:11:38.051Z,7.63
2018-05-15T05:14:07.811Z,7.50
2018-05-15T05:16:38.269Z,7.30
2018-05-15T05:19:08.478Z,9.07
2018-05-15T05:21:38.656Z,10.57
2018-05-15T05:24:08.259Z,8.53
2018-05-15T05:26:37.462Z,9.33
2018-05-15T05:29:06.966Z,8.93
2018-05-15T05:31:36.480Z,9.53
2018-05-15T05:34:06.328Z,9.43
2018-05-15T05:36:35.668Z,10.00
2018-05-15T05:39:06.593Z,9.33
2018-05-15T05:41:36.293Z,8.87
2018-05-15T05:44:05.763Z,10.40
2018-05-15T05:46:35.188Z,7.90
2018-05-15T05:49:05.552Z,8.77
2018-05-15T05:51:34.748Z,8.70
2018-05-15T05:54:04.025Z,8.70
2018-05-15T05:56:33.509Z,8.23
2018-05-15T05:59:03.034Z,7.73
2018-05-15T06:01:32.560Z,7.63
2018-05-15T06:04:02.044Z,6.40
2018-05-15T06:06:32.415Z,7.17
2018-05-15T06:09:02.603Z,7.27
2018-05-15T06:11:32.228Z,7.57
2018-05-15T06:14:01.717Z,7.20
2018-05-15T06:16:31.236Z,7.17
2018-05-15T06:19:03.193Z,5.90
2018-05-15T06:21:33.539Z,6.00
2018-05-15T06:24:03.500Z,5.77
2018-05-15T06:26:32.983Z,5.57
2018-05-15T06:29:02.188Z,5.03
2018-05-15T06:31:31.423Z,5.10
2018-05-15T06:34:02.723Z,5.90
2018-05-15T06:36:32.338Z,5.50
2018-05-15T06:39:02.456Z,5.40
2018-05-15T06:41:31.719Z,5.90
2018-05-15T06:44:01.243Z,5.53
2018-05-15T06:46:30.756Z,5.80
2018-05-15T06:49:00.275Z,5.93
2018-05-15T06:51:31.056Z,5.90
2018-05-15T06:54:00.256Z,5.07
2018-05-15T06:56:29.523Z,5.33
2018-05-15T06:59:00.143Z,6.37
2018-05-15T07:01:29.647Z,5.40
2018-05-15T07:03:59.167Z,4.70
2018-05-15T07:06:28.695Z,4.30
2018-05-15T07:08:57.897Z,4.70
2018-05-15T07:11:27.511Z,3.93
2018-05-15T07:13:57.672Z,4.87
2018-05-15T07:16:27.116Z,4.17
2018-05-15T07:18:56.626Z,4.33
2018-05-15T07:21:26.173Z,4.40
2018-05-15T07:23:55.714Z,4.30
2018-05-15T07:26:25.177Z,4.40
2018-05-15T07:28:54.399Z,3.80
2018-05-15T07:31:24.528Z,4.13
2018-05-15T07:33:54.084Z,3.90
2018-05-15T07:36:24.299Z,4.00
2018-05-15T07:38:53.745Z,3.77
2018-05-15T07:41:23.286Z,3.63
2018-05-15T07:43:53.378Z,3.63
2018-05-15T07:46:23.556Z,4.40
2018-05-15T07:48:53.136Z,3.50
2018-05-15T07:51:22.591Z,3.60
2018-05-15T07:53:51.812Z,3.90
2018-05-15T07:56:21.304Z,3.80
2018-05-15T07:58:50.815Z,4.03
2018-05-15T08:01:20.351Z,3.63
2018-05-15T08:03:49.839Z,3.80
2018-05-15T08:06:19.343Z,3.57
2018-05-15T08:08:48.847Z,3.67
2018-05-15T08:11:18.194Z,3.53
2018-05-15T08:13:47.796Z,3.80
2018-05-15T08:16:17.289Z,3.97
2018-05-15T08:18:46.811Z,3.30
2018-05-15T08:21:16.468Z,3.07
2018-05-15T08:23:45.876Z,3.20
2018-05-15T08:26:15.445Z,4.10
2018-05-15T08:28:44.925Z,3.90
2018-05-15T08:31:14.164Z,3.53
2018-05-15T08:33:43.632Z,3.33
2018-05-15T08:36:13.147Z,3.57
2018-05-15T08:38:42.652Z,3.40
2018-05-15T08:41:12.165Z,3.37
2018-05-15T08:43:41.699Z,3.30
2018-05-15T08:46:11.206Z,3.40
2018-05-15T08:48:40.692Z,3.40
2018-05-15T08:51:09.885Z,3.50
2018-05-15T08:53:39.085Z,4.00
2018-05-15T08:56:09.320Z,4.23
2018-05-15T08:58:39.369Z,4.00
2018-05-15T09:01:08.978Z,4.00
2018-05-15T09:03:38.435Z,3.70
2018-05-15T09:06:07.893Z,3.90
2018-05-15T09:08:37.494Z,3.87
2018-05-15T09:11:07.013Z,3.80
2018-05-15T09:13:36.495Z,3.90
2018-05-15T09:16:06.032Z,3.90
2018-05-15T09:18:35.544Z,3.60
2018-05-15T09:21:05.643Z,4.27
2018-05-15T09:23:34.939Z,4.27
2018-05-15T09:26:04.463Z,4.20
2018-05-15T09:28:33.987Z,4.43
2018-05-15T09:31:03.207Z,4.10
2018-05-15T09:33:32.473Z,4.10
2018-05-15T09:36:01.696Z,4.33
2018-05-15T09:38:31.183Z,4.35
2018-05-15T09:41:00.379Z,4.17
2018-05-15T09:43:51.071Z,3.90
2018-05-15T09:46:21.543Z,4.67
2018-05-15T09:48:50.986Z,3.72
2018-05-15T09:51:20.523Z,3.90
2018-05-15T09:53:50.055Z,4.80
2018-05-15T09:56:19.523Z,4.70
2018-05-15T09:58:48.715Z,4.03
2018-05-15T10:01:18.303Z,3.50
2018-05-15T10:03:47.763Z,4.07
2018-05-15T10:06:17.294Z,4.37
2018-05-15T10:08:46.803Z,4.40
2018-05-15T10:14:01.315Z,4.15
2018-05-15T10:16:31.398Z,3.97
2018-05-15T10:19:00.877Z,4.20
2018-05-15T10:21:30.387Z,4.22
2018-05-15T10:24:00.015Z,3.72
2018-05-15T10:26:29.486Z,4.28
2018-05-15T10:28:59.123Z,4.57
2018-05-15T10:31:28.331Z,3.70
2018-05-15T10:33:57.857Z,3.90
2018-05-15T10:36:27.110Z,4.10
2018-05-15T10:38:56.677Z,4.20
2018-05-15T10:41:25.875Z,4.40
2018-05-15T10:43:55.387Z,3.67
2018-05-15T10:46:24.861Z,3.62
2018-05-15T10:48:54.401Z,4.12
2018-05-15T10:51:23.619Z,3.87
2018-05-15T10:53:53.084Z,3.58
2018-05-15T10:56:22.733Z,4.18
2018-05-15T10:58:52.203Z,3.60
2018-05-15T11:01:21.742Z,5.00
2018-05-15T11:03:50.941Z,3.85
2018-05-15T11:06:20.283Z,4.03
2018-05-15T11:08:49.832Z,4.53
2018-05-15T11:11:19.339Z,3.80
2018-05-15T11:13:48.877Z,3.70
2018-05-15T11:16:18.385Z,3.87
2018-05-15T11:18:47.611Z,3.75
2018-05-15T11:21:23.382Z,4.22
2018-05-15T11:23:58.375Z,4.03
2018-05-15T11:26:27.883Z,3.90
2018-05-15T11:28:57.364Z,3.45
2018-05-15T11:31:26.979Z,3.30
2018-05-15T11:33:56.599Z,3.50
2018-05-15T11:36:26.513Z,3.20
2018-05-15T11:38:56.021Z,3.75
2018-05-15T11:41:26.334Z,3.05
2018-05-15T11:43:55.458Z,3.37
2018-05-15T11:46:24.743Z,3.20
2018-05-15T11:48:54.872Z,3.15
2018-05-15T11:51:25.177Z,3.60
2018-05-15T11:53:53.698Z,2.97
2018-05-15T11:56:23.304Z,3.00
2018-05-15T11:58:52.808Z,3.25
2018-05-15T12:01:22.239Z,3.20
2018-05-15T12:03:51.541Z,3.42
2018-05-15T12:06:20.972Z,3.12
2018-05-15T12:08:50.459Z,3.28
2018-05-15T12:11:19.651Z,3.08
2018-05-15T12:13:49.142Z,3.40
2018-05-15T12:16:18.348Z,3.60
2018-05-15T12:18:47.964Z,3.20
2018-05-15T12:21:18.864Z,3.50
2018-05-15T12:23:49.960Z,3.20
2018-05-15T12:26:20.708Z,3.03
2018-05-15T12:28:51.212Z,3.10
2018-05-15T12:31:21.731Z,3.37
2018-05-15T12:33:51.652Z,3.25
2018-05-15T12:36:21.215Z,3.03
2018-05-15T12:38:51.219Z,3.17
2018-05-15T12:41:20.751Z,3.80
2018-05-15T12:43:50.321Z,3.00
2018-05-15T12:46:19.527Z,3.40
2018-05-15T12:48:49.447Z,3.20
2018-05-15T12:51:19.955Z,2.83
2018-05-15T12:53:50.422Z,2.90
2018-05-15T12:56:20.648Z,2.65
2018-05-15T12:58:50.103Z,3.35
2018-05-15T13:04:03.503Z,2.78
2018-05-15T13:06:33.534Z,2.92
2018-05-15T13:09:02.737Z,3.12
2018-05-15T13:11:32.219Z,2.75
2018-05-15T13:14:01.743Z,2.72
2018-05-15T13:16:31.252Z,3.50
2018-05-15T13:19:00.731Z,2.70
2018-05-15T13:21:30.274Z,3.20
2018-05-15T13:23:59.499Z,2.95
2018-05-15T13:26:28.981Z,3.05
2018-05-15T13:28:58.293Z,3.00
2018-05-15T13:31:27.896Z,3.75
2018-05-15T13:33:57.099Z,2.95
2018-05-15T13:36:28.140Z,3.03
2018-05-15T13:38:57.624Z,3.10
2018-05-15T13:41:27.807Z,3.10
2018-05-15T13:43:57.900Z,3.58
2018-05-15T13:46:27.384Z,3.42
2018-05-15T13:48:57.497Z,4.22
2018-05-15T13:51:27.833Z,2.90
2018-05-15T13:53:57.311Z,3.25
2018-05-15T13:56:26.887Z,3.00
2018-05-15T13:58:57.233Z,3.62
2018-05-15T14:01:26.789Z,3.70
2018-05-15T14:03:56.283Z,3.03
2018-05-15T14:06:25.833Z,3.12
2018-05-15T14:08:55.259Z,3.42
2018-05-15T14:11:25.671Z,3.40
2018-05-15T14:13:55.184Z,3.25
2018-05-15T14:16:25.488Z,3.42
2018-05-15T14:18:54.987Z,2.90
2018-05-15T14:21:24.191Z,3.55
2018-05-15T14:23:53.664Z,3.60
2018-05-15T14:26:23.235Z,4.47
2018-05-15T14:28:52.797Z,3.53
2018-05-15T14:31:21.999Z,3.17
2018-05-15T14:33:51.532Z,3.12
2018-05-15T14:36:21.049Z,4.10
2018-05-15T14:38:50.582Z,4.03
2018-05-15T14:41:20.803Z,3.03
2018-05-15T14:43:50.313Z,2.85
2018-05-15T14:46:19.895Z,3.05
2018-05-15T14:48:49.171Z,3.15
2018-05-15T14:51:33.205Z,2.85
2018-05-15T14:54:06.534Z,3.03
2018-05-15T14:56:36.073Z,3.37
2018-05-15T14:59:05.585Z,3.12
2018-05-15T15:01:35.091Z,3.65
2018-05-15T15:04:04.301Z,2.95
2018-05-15T15:06:33.698Z,2.97
2018-05-15T15:09:03.128Z,3.20
2018-05-15T15:11:32.718Z,2.78
2018-05-15T15:14:02.230Z,3.05
2018-05-15T15:16:31.838Z,3.50
2018-05-15T15:19:01.315Z,3.62
2018-05-15T15:21:31.750Z,3.30
2018-05-15T15:24:01.289Z,3.03
2018-05-15T15:26:30.760Z,4.12
2018-05-15T15:29:00.303Z,3.42
2018-05-15T15:31:29.783Z,3.20
2018-05-15T15:33:59.239Z,3.05
2018-05-15T15:36:29.043Z,3.40
2018-05-15T15:38:58.243Z,2.95
2018-05-15T15:41:27.470Z,3.17
2018-05-15T15:43:56.671Z,2.85
2018-05-15T15:46:26.253Z,3.20
2018-05-15T15:48:55.762Z,3.83
2018-05-15T15:51:25.271Z,2.95
2018-05-15T15:53:54.818Z,3.42
2018-05-15T15:56:24.363Z,3.50
2018-05-15T15:58:53.559Z,3.45
2018-05-15T16:01:23.104Z,3.50
2018-05-15T16:03:52.300Z,3.72
2018-05-15T16:06:21.814Z,3.37
2018-05-15T16:08:51.247Z,4.18
2018-05-15T16:11:21.167Z,3.53
2018-05-15T16:13:50.615Z,3.78
2018-05-15T16:16:20.573Z,3.22
2018-05-15T16:18:50.007Z,3.80
2018-05-15T16:21:20.167Z,3.30
2018-05-15T16:23:50.256Z,3.03
2018-05-15T16:26:19.830Z,3.25
2018-05-15T16:28:50.030Z,2.95
2018-05-15T16:31:19.465Z,3.55
2018-05-15T16:33:48.981Z,3.03
2018-05-15T16:36:18.456Z,3.00
2018-05-15T16:38:47.916Z,2.92
2018-05-15T16:41:17.468Z,3.08
2018-05-15T16:43:47.328Z,2.92
2018-05-15T16:46:16.904Z,2.90
2018-05-15T16:48:46.548Z,6.22
2018-05-15T16:51:16.047Z,11.25
2018-05-15T16:53:45.239Z,3.50
2018-05-15T16:56:14.506Z,5.95
2018-05-15T16:58:43.815Z,28.75
2018-05-15T17:01:13.091Z,3.17
2018-05-15T17:03:42.300Z,3.65
2018-05-15T17:06:11.874Z,3.30
2018-05-15T17:08:41.384Z,3.62
2018-05-15T17:11:11.409Z,3.37
2018-05-15T17:16:18.535Z,3.12
2018-05-15T17:18:47.965Z,4.40
2018-05-15T17:21:17.391Z,3.50
2018-05-15T17:23:46.930Z,4.55
2018-05-15T17:26:16.540Z,4.00
2018-05-15T17:28:46.027Z,4.18
2018-05-15T17:31:15.542Z,3.62
2018-05-15T17:33:45.004Z,3.55
2018-05-15T17:36:14.547Z,3.83
2018-05-15T17:38:43.743Z,3.37
2018-05-15T17:41:13.390Z,3.17
2018-05-15T17:43:42.899Z,4.03
2018-05-15T17:46:12.386Z,3.50
2018-05-15T17:48:41.672Z,4.32
2018-05-15T17:51:11.128Z,3.92
2018-05-15T17:53:40.734Z,3.47
2018-05-15T17:56:10.074Z,3.42
2018-05-15T17:58:39.651Z,3.05
2018-05-15T18:01:09.159Z,3.50
2018-05-15T18:03:38.416Z,3.55
2018-05-15T18:06:07.870Z,3.15
2018-05-15T18:08:37.806Z,3.15
2018-05-15T18:11:07.263Z,4.10
2018-05-15T18:13:36.524Z,3.70
2018-05-15T18:18:41.941Z,3.37
2018-05-15T18:21:11.212Z,3.50
2018-05-15T18:23:40.415Z,3.67
2018-05-15T18:26:09.978Z,3.58
2018-05-15T18:28:39.227Z,3.58
2018-05-15T18:31:09.610Z,3.78
2018-05-15T18:33:39.230Z,3.72
2018-05-15T18:36:08.700Z,3.62
2018-05-15T18:38:38.167Z,3.70
2018-05-15T18:41:07.628Z,3.62
2018-05-15T18:43:36.867Z,3.78
2018-05-15T18:46:06.067Z,3.20
2018-05-15T18:48:35.259Z,4.05
2018-05-15T18:51:05.788Z,4.00
2018-05-15T18:53:35.212Z,3.63
2018-05-15T18:56:04.772Z,3.30
2018-05-15T18:58:34.318Z,3.75
2018-05-15T19:01:03.821Z,4.07
2018-05-15T19:03:33.302Z,3.40
2018-05-15T19:06:02.839Z,3.90
2018-05-15T19:08:32.408Z,3.30
2018-05-15T19:11:01.888Z,3.70
2018-05-15T19:13:31.446Z,3.80
2018-05-15T19:16:00.703Z,3.80
2018-05-15T19:18:30.223Z,3.17
2018-05-15T19:20:59.791Z,3.87
2018-05-15T19:23:29.955Z,4.10
2018-05-15T19:25:59.504Z,3.87
2018-05-15T19:28:29.034Z,4.30
2018-05-15T19:30:58.545Z,4.47
2018-05-15T19:33:33.891Z,4.30
2018-05-15T19:36:09.129Z,4.37
2018-05-15T19:38:38.639Z,4.30
2018-05-15T19:41:07.860Z,4.23
2018-05-15T19:43:37.059Z,3.70
2018-05-15T19:46:06.256Z,3.57
2018-05-15T19:48:36.671Z,3.70
2018-05-15T19:51:06.155Z,3.77
2018-05-15T19:53:35.527Z,3.70
2018-05-15T19:56:04.715Z,3.90
2018-05-15T19:58:34.065Z,4.10
2018-05-15T20:01:03.603Z,4.47
2018-05-15T20:03:33.189Z,3.97
2018-05-15T20:06:02.723Z,4.50
2018-05-15T20:08:31.931Z,4.67
2018-05-15T20:11:02.391Z,4.97
2018-05-15T20:13:32.186Z,4.37
2018-05-15T20:16:01.769Z,4.63
2018-05-15T20:18:30.971Z,4.37
2018-05-15T20:21:00.488Z,4.73
2018-05-15T20:26:08.225Z,4.10
2018-05-15T20:28:37.808Z,4.37
2018-05-15T20:31:07.320Z,5.00
2018-05-15T20:33:36.776Z,5.17
2018-05-15T20:36:06.364Z,4.60
2018-05-15T20:38:35.873Z,5.50
2018-05-15T20:41:05.383Z,6.20
2018-05-15T20:43:34.863Z,5.23
2018-05-15T20:46:04.992Z,4.60
2018-05-15T20:48:34.524Z,4.77
2018-05-15T20:51:04.007Z,5.70
2018-05-15T20:53:33.558Z,5.73
2018-05-15T20:56:03.153Z,5.47
2018-05-15T20:58:32.723Z,5.60
2018-05-15T21:01:02.244Z,6.37
2018-05-15T21:03:31.703Z,6.23
2018-05-15T21:06:01.073Z,6.20
2018-05-15T21:08:30.292Z,5.03
2018-05-15T21:10:59.881Z,5.20
2018-05-15T21:13:29.385Z,5.53
2018-05-15T21:15:58.583Z,6.07
2018-05-15T21:18:28.171Z,5.00
2018-05-15T21:21:03.446Z,5.47
2018-05-15T21:23:32.955Z,5.17
2018-05-15T21:26:02.559Z,5.20
2018-05-15T21:28:31.759Z,5.10
2018-05-15T21:31:01.301Z,5.13
2018-05-15T21:33:31.391Z,5.23
2018-05-15T21:36:01.541Z,5.57
2018-05-15T21:38:31.070Z,5.53
2018-05-15T21:41:00.538Z,5.20
2018-05-15T21:43:30.042Z,6.27
2018-05-15T21:45:59.587Z,5.30
2018-05-15T21:48:29.059Z,4.83
2018-05-15T21:50:58.371Z,5.33
2018-05-15T21:53:28.003Z,6.77
2018-05-15T21:55:58.719Z,5.90
2018-05-15T21:58:28.148Z,5.93
2018-05-15T22:00:59.132Z,5.67
2018-05-15T22:03:28.786Z,5.23
2018-05-15T22:05:58.310Z,5.13
2018-05-15T22:08:27.740Z,6.20
2018-05-15T22:10:57.139Z,7.17
2018-05-15T22:13:32.670Z,6.17
2018-05-15T22:16:08.115Z,5.90
2018-05-15T22:18:43.319Z,6.07
2018-05-15T22:21:18.680Z,6.37
2018-05-15T22:23:47.975Z,6.20
2018-05-15T22:26:17.267Z,6.03
2018-05-15T22:28:46.723Z,6.17
2018-05-15T22:31:16.323Z,6.13
2018-05-15T22:33:45.940Z,6.60
2018-05-15T22:36:15.415Z,6.67
2018-05-15T22:38:44.968Z,7.00
2018-05-15T22:41:14.537Z,6.70
2018-05-15T22:43:44.084Z,6.60
2018-05-15T22:46:13.699Z,6.70
2018-05-15T22:48:44.217Z,7.20
2018-05-15T22:51:13.726Z,6.43
2018-05-15T22:53:43.235Z,6.60
2018-05-15T22:56:12.673Z,7.00
2018-05-15T22:58:42.275Z,6.73
2018-05-15T23:01:11.488Z,6.93
2018-05-15T23:03:41.144Z,6.97
2018-05-15T23:06:10.656Z,6.60
2018-05-15T23:08:40.159Z,6.30
2018-05-15T23:11:09.804Z,6.50
2018-05-15T23:13:39.003Z,7.40
2018-05-15T23:16:08.255Z,6.93
2018-05-15T23:18:37.895Z,6.50
2018-05-15T23:21:07.425Z,7.37
2018-05-15T23:23:36.888Z,6.47
2018-05-15T23:26:06.444Z,7.10
2018-05-15T23:28:36.033Z,6.50
2018-05-15T23:31:05.543Z,7.03
2018-05-15T23:33:35.073Z,5.90
2018-05-15T23:36:04.553Z,6.67
2018-05-15T23:38:33.751Z,6.67
2018-05-15T23:41:03.296Z,6.80
2018-05-15T23:43:32.547Z,6.93
2018-05-15T23:46:02.035Z,6.67
2018-05-15T23:48:31.234Z,6.73
2018-05-15T23:51:00.693Z,7.47
2018-05-15T23:53:30.223Z,6.70
2018-05-15T23:56:00.600Z,6.77
2018-05-15T23:58:30.137Z,6.70
